sensor_id;sensor_type;location;lat;lon;timestamp;pressure;altitude;pressure_sealevel;temperature;humidity
68654;BME280;55636;51.108;13.622;2023-05-31T00:00:32;101113.06;;;14.06;41.21
68654;BME280;55636;51.108;13.622;2023-05-31T00:01:35;101113.31;;;14.05;41.13
68654;BME280;55636;51.108;13.622;2023-05-31T00:02:37;101117.44;;;14.02;41.61
68654;BME280;55636;51.108;13.622;2023-05-31T00:03:40;101107.72;;;13.99;42.08
68654;BME280;55636;51.108;13.622;2023-05-31T00:04:45;101107.16;;;13.97;42.36
68654;BME280;55636;51.108;13.622;2023-05-31T00:05:49;101116.84;;;13.95;43.12
68654;BME280;55636;51.108;13.622;2023-05-31T00:06:52;101112.66;;;13.92;42.63
68654;BME280;55636;51.108;13.622;2023-05-31T00:07:54;101111.25;;;13.90;42.89
68654;BME280;55636;51.108;13.622;2023-05-31T00:08:56;101115.41;;;13.87;43.05
68654;BME280;55636;51.108;13.622;2023-05-31T00:09:59;101117.59;;;13.85;43.40
68654;BME280;55636;51.108;13.622;2023-05-31T00:11:02;101117.03;;;13.83;43.56
68654;BME280;55636;51.108;13.622;2023-05-31T00:12:05;101119.81;;;13.83;43.39
68654;BME280;55636;51.108;13.622;2023-05-31T00:13:08;101119.22;;;13.81;44.02
68654;BME280;55636;51.108;13.622;2023-05-31T00:14:10;101122.25;;;13.79;43.71
68654;BME280;55636;51.108;13.622;2023-05-31T00:15:14;101121.44;;;13.79;43.99
68654;BME280;55636;51.108;13.622;2023-05-31T00:16:18;101116.41;;;13.76;43.90
68654;BME280;55636;51.108;13.622;2023-05-31T00:17:40;101114.97;;;13.73;44.17
68654;BME280;55636;51.108;13.622;2023-05-31T00:18:46;101118.88;;;13.72;44.29
68654;BME280;55636;51.108;13.622;2023-05-31T00:19:49;101117.19;;;13.71;44.57
68654;BME280;55636;51.108;13.622;2023-05-31T00:20:51;101121.91;;;13.71;44.95
68654;BME280;55636;51.108;13.622;2023-05-31T00:21:53;101120.47;;;13.68;44.92
68654;BME280;55636;51.108;13.622;2023-05-31T00:22:57;101120.72;;;13.66;44.88
68654;BME280;55636;51.108;13.622;2023-05-31T00:23:59;101121.81;;;13.65;45.12
68654;BME280;55636;51.108;13.622;2023-05-31T00:25:02;101119.31;;;13.64;45.42
68654;BME280;55636;51.108;13.622;2023-05-31T00:26:05;101122.34;;;13.62;45.58
68654;BME280;55636;51.108;13.622;2023-05-31T00:27:07;101114.28;;;13.61;45.50
68654;BME280;55636;51.108;13.622;2023-05-31T00:28:09;101117.34;;;13.59;45.74
68654;BME280;55636;51.108;13.622;2023-05-31T00:29:12;101123.41;;;13.56;45.74
68654;BME280;55636;51.108;13.622;2023-05-31T00:30:14;101113.41;;;13.55;45.64
68654;BME280;55636;51.108;13.622;2023-05-31T00:31:17;101116.44;;;13.54;45.40
68654;BME280;55636;51.108;13.622;2023-05-31T00:32:21;101121.97;;;13.54;45.53
68654;BME280;55636;51.108;13.622;2023-05-31T00:33:23;101122.25;;;13.52;45.52
68654;BME280;55636;51.108;13.622;2023-05-31T00:34:26;101121.69;;;13.50;45.23
68654;BME280;55636;51.108;13.622;2023-05-31T00:35:29;101130.25;;;13.48;45.52
68654;BME280;55636;51.108;13.622;2023-05-31T00:36:32;101129.44;;;13.48;45.25
68654;BME280;55636;51.108;13.622;2023-05-31T00:37:35;101123.56;;;13.44;45.27
68654;BME280;55636;51.108;13.622;2023-05-31T00:38:39;101126.59;;;13.43;45.06
68654;BME280;55636;51.108;13.622;2023-05-31T00:39:42;101124.91;;;13.42;44.99
68654;BME280;55636;51.108;13.622;2023-05-31T00:40:45;101120.47;;;13.41;45.23
68654;BME280;55636;51.108;13.622;2023-05-31T00:41:47;101128.22;;;13.39;45.29
68654;BME280;55636;51.108;13.622;2023-05-31T00:42:50;101128.50;;;13.37;45.82
68654;BME280;55636;51.108;13.622;2023-05-31T00:43:52;101133.44;;;13.35;46.05
68654;BME280;55636;51.108;13.622;2023-05-31T00:44:55;101126.22;;;13.34;45.84
68654;BME280;55636;51.108;13.622;2023-05-31T00:45:57;101127.56;;;13.31;45.86
68654;BME280;55636;51.108;13.622;2023-05-31T00:47:00;101117.84;;;13.29;46.11
68654;BME280;55636;51.108;13.622;2023-05-31T00:48:02;101130.88;;;13.28;45.86
68654;BME280;55636;51.108;13.622;2023-05-31T00:49:06;101128.38;;;13.27;45.89
68654;BME280;55636;51.108;13.622;2023-05-31T00:50:09;101131.41;;;13.25;45.85
68654;BME280;55636;51.108;13.622;2023-05-31T00:51:12;101125.53;;;13.22;46.21
68654;BME280;55636;51.108;13.622;2023-05-31T00:52:14;101131.34;;;13.20;46.26
68654;BME280;55636;51.108;13.622;2023-05-31T00:53:17;101133.28;;;13.20;46.66
68654;BME280;55636;51.108;13.622;2023-05-31T00:54:24;101134.63;;;13.17;47.61
68654;BME280;55636;51.108;13.622;2023-05-31T00:55:27;101134.91;;;13.15;47.59
68654;BME280;55636;51.108;13.622;2023-05-31T00:56:31;101133.22;;;13.14;48.11
68654;BME280;55636;51.108;13.622;2023-05-31T00:57:33;101132.66;;;13.12;47.90
68654;BME280;55636;51.108;13.622;2023-05-31T00:58:40;101134.56;;;13.12;48.13
68654;BME280;55636;51.108;13.622;2023-05-31T00:59:43;101128.72;;;13.08;48.33
68654;BME280;55636;51.108;13.622;2023-05-31T01:00:45;101134.50;;;13.07;48.70
68654;BME280;55636;51.108;13.622;2023-05-31T01:01:50;101132.00;;;13.05;48.64
68654;BME280;55636;51.108;13.622;2023-05-31T01:02:52;101131.44;;;13.03;48.38
68654;BME280;55636;51.108;13.622;2023-05-31T01:03:56;101142.53;;;13.03;48.73
68654;BME280;55636;51.108;13.622;2023-05-31T01:04:59;101135.78;;;12.99;49.01
68654;BME280;55636;51.108;13.622;2023-05-31T01:06:01;101128.59;;;12.98;48.90
68654;BME280;55636;51.108;13.622;2023-05-31T01:07:04;101130.78;;;12.96;49.15
68654;BME280;55636;51.108;13.622;2023-05-31T01:08:07;101129.34;;;12.93;49.33
68654;BME280;55636;51.108;13.622;2023-05-31T01:09:10;101134.31;;;12.91;49.29
68654;BME280;55636;51.108;13.622;2023-05-31T01:10:13;101133.47;;;12.91;49.48
68654;BME280;55636;51.108;13.622;2023-05-31T01:11:46;101128.47;;;12.88;49.14
68654;BME280;55636;51.108;13.622;2023-05-31T01:13:04;101140.91;;;12.85;49.31
68654;BME280;55636;51.108;13.622;2023-05-31T01:14:41;101132.25;;;12.81;48.78
68654;BME280;55636;51.108;13.622;2023-05-31T01:15:48;101126.97;;;12.80;49.13
68654;BME280;55636;51.108;13.622;2023-05-31T01:17:06;101137.47;;;12.78;48.94
68654;BME280;55636;51.108;13.622;2023-05-31T01:18:14;101134.13;;;12.76;48.95
68654;BME280;55636;51.108;13.622;2023-05-31T01:19:36;101133.53;;;12.74;48.46
68654;BME280;55636;51.108;13.622;2023-05-31T01:20:43;101134.88;;;12.71;48.63
68654;BME280;55636;51.108;13.622;2023-05-31T01:21:55;101137.91;;;12.70;48.56
68654;BME280;55636;51.108;13.622;2023-05-31T01:24:25;101141.44;;;12.65;48.25
68654;BME280;55636;51.108;13.622;2023-05-31T01:25:57;101134.47;;;12.62;48.17
68654;BME280;55636;51.108;13.622;2023-05-31T01:27:01;101142.19;;;12.60;48.60
68654;BME280;55636;51.108;13.622;2023-05-31T01:28:05;101142.47;;;12.59;48.65
68654;BME280;55636;51.108;13.622;2023-05-31T01:29:21;101140.78;;;12.58;48.91
68654;BME280;55636;51.108;13.622;2023-05-31T01:30:28;101135.72;;;12.55;48.94
68654;BME280;55636;51.108;13.622;2023-05-31T01:31:34;101137.66;;;12.54;49.08
68654;BME280;55636;51.108;13.622;2023-05-31T01:32:38;101133.22;;;12.53;48.79
68654;BME280;55636;51.108;13.622;2023-05-31T01:33:41;101132.66;;;12.51;48.86
68654;BME280;55636;51.108;13.622;2023-05-31T01:34:45;101130.09;;;12.49;48.61
68654;BME280;55636;51.108;13.622;2023-05-31T01:35:49;101133.41;;;12.46;48.55
68654;BME280;55636;51.108;13.622;2023-05-31T01:36:52;101131.72;;;12.45;48.77
68654;BME280;55636;51.108;13.622;2023-05-31T01:37:54;101136.44;;;12.45;48.73
68654;BME280;55636;51.108;13.622;2023-05-31T01:38:56;101133.91;;;12.43;48.42
68654;BME280;55636;51.108;13.622;2023-05-31T01:39:59;101130.53;;;12.41;48.51
68654;BME280;55636;51.108;13.622;2023-05-31T01:41:04;101135.53;;;12.39;48.49
68654;BME280;55636;51.108;13.622;2023-05-31T01:42:09;101130.22;;;12.38;48.50
68654;BME280;55636;51.108;13.622;2023-05-31T01:43:13;101139.63;;;12.37;48.44
68654;BME280;55636;51.108;13.622;2023-05-31T01:44:17;101140.72;;;12.35;48.81
68654;BME280;55636;51.108;13.622;2023-05-31T01:45:21;101140.97;;;12.34;48.81
68654;BME280;55636;51.108;13.622;2023-05-31T01:46:24;101141.22;;;12.32;48.75
68654;BME280;55636;51.108;13.622;2023-05-31T01:47:28;101137.03;;;12.30;49.13
68654;BME280;55636;51.108;13.622;2023-05-31T01:48:33;101140.03;;;12.28;49.04
68654;BME280;55636;51.108;13.622;2023-05-31T01:49:37;101134.75;;;12.27;48.92
68654;BME280;55636;51.108;13.622;2023-05-31T01:50:40;101135.03;;;12.25;49.15
68654;BME280;55636;51.108;13.622;2023-05-31T01:51:44;101138.06;;;12.24;49.25
68654;BME280;55636;51.108;13.622;2023-05-31T01:52:49;101131.91;;;12.22;49.48
68654;BME280;55636;51.108;13.622;2023-05-31T01:53:52;101131.09;;;12.21;49.53
68654;BME280;55636;51.108;13.622;2023-05-31T01:54:54;101138.78;;;12.19;49.60
68654;BME280;55636;51.108;13.622;2023-05-31T01:55:58;101131.56;;;12.18;49.75
68654;BME280;55636;51.108;13.622;2023-05-31T01:57:03;101134.59;;;12.16;49.98
68654;BME280;55636;51.108;13.622;2023-05-31T01:58:06;101131.25;;;12.14;49.51
68654;BME280;55636;51.108;13.622;2023-05-31T01:59:09;101140.91;;;12.12;49.78
68654;BME280;55636;51.108;13.622;2023-05-31T02:00:13;101140.06;;;12.11;49.73
68654;BME280;55636;51.108;13.622;2023-05-31T02:01:20;101128.41;;;12.09;49.59
68654;BME280;55636;51.108;13.622;2023-05-31T02:02:22;101136.94;;;12.08;49.46
68654;BME280;55636;51.108;13.622;2023-05-31T02:03:25;101136.38;;;12.06;49.30
68654;BME280;55636;51.108;13.622;2023-05-31T02:04:29;101128.31;;;12.04;49.11
68654;BME280;55636;51.108;13.622;2023-05-31T02:05:32;101136.03;;;12.02;48.81
68654;BME280;55636;51.108;13.622;2023-05-31T02:06:37;101134.59;;;11.99;48.78
68654;BME280;55636;51.108;13.622;2023-05-31T02:07:42;101134.00;;;11.97;48.94
68654;BME280;55636;51.108;13.622;2023-05-31T02:08:45;101141.75;;;11.95;48.48
68654;BME280;55636;51.108;13.622;2023-05-31T02:09:48;101137.53;;;11.93;48.20
68654;BME280;55636;51.108;13.622;2023-05-31T02:10:51;101136.94;;;11.91;48.24
68654;BME280;55636;51.108;13.622;2023-05-31T02:11:54;101134.44;;;11.89;48.36
68654;BME280;55636;51.108;13.622;2023-05-31T02:12:56;101135.78;;;11.87;48.27
68654;BME280;55636;51.108;13.622;2023-05-31T02:13:59;101134.34;;;11.84;48.14
68654;BME280;55636;51.108;13.622;2023-05-31T02:15:02;101133.78;;;11.82;48.39
68654;BME280;55636;51.108;13.622;2023-05-31T02:16:05;101136.75;;;11.80;47.93
68654;BME280;55636;51.108;13.622;2023-05-31T02:17:07;101137.03;;;11.79;48.17
68654;BME280;55636;51.108;13.622;2023-05-31T02:18:10;101142.81;;;11.77;48.17
68654;BME280;55636;51.108;13.622;2023-05-31T02:19:12;101129.47;;;11.74;48.00
68654;BME280;55636;51.108;13.622;2023-05-31T02:20:16;101136.09;;;11.73;47.86
68654;BME280;55636;51.108;13.622;2023-05-31T02:21:19;101135.25;;;11.73;47.93
68654;BME280;55636;51.108;13.622;2023-05-31T02:22:21;101142.13;;;11.70;48.00
68654;BME280;55636;51.108;13.622;2023-05-31T02:23:25;101139.59;;;11.68;47.92
68654;BME280;55636;51.108;13.622;2023-05-31T02:24:27;101139.28;;;11.65;47.98
68654;BME280;55636;51.108;13.622;2023-05-31T02:25:30;101132.06;;;11.64;48.19
68654;BME280;55636;51.108;13.622;2023-05-31T02:26:33;101133.41;;;11.61;48.16
68654;BME280;55636;51.108;13.622;2023-05-31T02:27:35;101133.66;;;11.60;48.16
68654;BME280;55636;51.108;13.622;2023-05-31T02:28:38;101128.34;;;11.58;48.02
68654;BME280;55636;51.108;13.622;2023-05-31T02:29:40;101138.84;;;11.56;48.25
68654;BME280;55636;51.108;13.622;2023-05-31T02:30:56;101134.63;;;11.54;47.98
68654;BME280;55636;51.108;13.622;2023-05-31T02:32:00;101144.28;;;11.51;48.19
68654;BME280;55636;51.108;13.622;2023-05-31T02:33:02;101132.34;;;11.50;48.26
68654;BME280;55636;51.108;13.622;2023-05-31T02:34:07;101136.47;;;11.48;48.45
68654;BME280;55636;51.108;13.622;2023-05-31T02:35:10;101146.13;;;11.45;48.34
68654;BME280;55636;51.108;13.622;2023-05-31T02:36:13;101148.03;;;11.45;48.35
68654;BME280;55636;51.108;13.622;2023-05-31T02:37:17;101144.88;;;11.41;48.41
68654;BME280;55636;51.108;13.622;2023-05-31T02:38:20;101152.59;;;11.39;48.65
68654;BME280;55636;51.108;13.622;2023-05-31T02:39:24;101147.31;;;11.38;48.49
68654;BME280;55636;51.108;13.622;2023-05-31T02:40:27;101159.47;;;11.36;48.49
68654;BME280;55636;51.108;13.622;2023-05-31T02:41:30;101157.16;;;11.33;48.47
68654;BME280;55636;51.108;13.622;2023-05-31T02:42:32;101157.41;;;11.32;48.75
68654;BME280;55636;51.108;13.622;2023-05-31T02:43:34;101159.59;;;11.30;48.50
68654;BME280;55636;51.108;13.622;2023-05-31T02:44:37;101153.22;;;11.29;48.87
68654;BME280;55636;51.108;13.622;2023-05-31T02:45:40;101157.94;;;11.29;48.86
68654;BME280;55636;51.108;13.622;2023-05-31T02:46:43;101155.66;;;11.26;48.82
68654;BME280;55636;51.108;13.622;2023-05-31T02:47:46;101148.44;;;11.25;48.97
68654;BME280;55636;51.108;13.622;2023-05-31T02:48:49;101157.00;;;11.23;49.09
68654;BME280;55636;51.108;13.622;2023-05-31T02:49:52;101153.38;;;11.23;49.16
68654;BME280;55636;51.108;13.622;2023-05-31T02:50:57;101157.47;;;11.20;49.05
68654;BME280;55636;51.108;13.622;2023-05-31T02:52:20;101152.44;;;11.17;48.94
68654;BME280;55636;51.108;13.622;2023-05-31T02:53:45;101156.53;;;11.14;48.86
68654;BME280;55636;51.108;13.622;2023-05-31T02:54:57;101152.31;;;11.12;49.03
68654;BME280;55636;51.108;13.622;2023-05-31T02:56:03;101158.09;;;11.10;49.22
68654;BME280;55636;51.108;13.622;2023-05-31T02:57:24;101156.69;;;11.08;49.17
68654;BME280;55636;51.108;13.622;2023-05-31T02:58:26;101159.66;;;11.06;49.45
68654;BME280;55636;51.108;13.622;2023-05-31T03:00:02;101155.47;;;11.03;49.50
68654;BME280;55636;51.108;13.622;2023-05-31T03:01:13;101165.69;;;11.03;49.50
68654;BME280;55636;51.108;13.622;2023-05-31T03:02:48;101155.38;;;10.98;49.59
68654;BME280;55636;51.108;13.622;2023-05-31T03:04:08;101162.22;;;10.96;49.39
68654;BME280;55636;51.108;13.622;2023-05-31T03:05:11;101159.69;;;10.94;49.62
68654;BME280;55636;51.108;13.622;2023-05-31T03:06:14;101164.38;;;10.94;49.62
68654;BME280;55636;51.108;13.622;2023-05-31T03:07:18;101167.41;;;10.92;49.75
68654;BME280;55636;51.108;13.622;2023-05-31T03:08:21;101161.25;;;10.90;49.72
68654;BME280;55636;51.108;13.622;2023-05-31T03:09:25;101164.28;;;10.89;49.90
68654;BME280;55636;51.108;13.622;2023-05-31T03:10:29;101161.50;;;10.89;50.09
68654;BME280;55636;51.108;13.622;2023-05-31T03:11:31;101158.13;;;10.86;50.03
68654;BME280;55636;51.108;13.622;2023-05-31T03:12:34;101162.59;;;10.88;49.91
68654;BME280;55636;51.108;13.622;2023-05-31T03:13:39;101160.06;;;10.86;50.03
68654;BME280;55636;51.108;13.622;2023-05-31T03:14:41;101154.78;;;10.84;50.16
68654;BME280;55636;51.108;13.622;2023-05-31T03:15:44;101166.94;;;10.83;50.35
68654;BME280;55636;51.108;13.622;2023-05-31T03:16:47;101170.53;;;10.84;50.36
68654;BME280;55636;51.108;13.622;2023-05-31T03:17:50;101166.09;;;10.83;50.38
68654;BME280;55636;51.108;13.622;2023-05-31T03:18:53;101166.09;;;10.83;50.67
68654;BME280;55636;51.108;13.622;2023-05-31T03:19:57;101173.28;;;10.84;50.91
68654;BME280;55636;51.108;13.622;2023-05-31T03:21:00;101167.19;;;10.82;50.76
68654;BME280;55636;51.108;13.622;2023-05-31T03:22:03;101171.03;;;10.81;50.87
68654;BME280;55636;51.108;13.622;2023-05-31T03:23:06;101174.84;;;10.80;50.73
68654;BME280;55636;51.108;13.622;2023-05-31T03:24:09;101169.34;;;10.80;50.97
68654;BME280;55636;51.108;13.622;2023-05-31T03:25:12;101171.25;;;10.79;51.41
68654;BME280;55636;51.108;13.622;2023-05-31T03:26:14;101165.13;;;10.77;51.29
68654;BME280;55636;51.108;13.622;2023-05-31T03:27:16;101173.19;;;10.79;51.36
68654;BME280;55636;51.108;13.622;2023-05-31T03:28:19;101167.06;;;10.77;51.82
68654;BME280;55636;51.108;13.622;2023-05-31T03:29:21;101169.00;;;10.76;51.97
68654;BME280;55636;51.108;13.622;2023-05-31T03:30:24;101172.84;;;10.75;52.14
68654;BME280;55636;51.108;13.622;2023-05-31T03:31:32;101169.22;;;10.75;52.24
68654;BME280;55636;51.108;13.622;2023-05-31T03:32:34;101165.38;;;10.76;52.51
68654;BME280;55636;51.108;13.622;2023-05-31T03:33:39;101167.88;;;10.77;52.51
68654;BME280;55636;51.108;13.622;2023-05-31T03:34:41;101171.25;;;10.79;52.74
68654;BME280;55636;51.108;13.622;2023-05-31T03:35:44;101177.38;;;10.81;52.68
68654;BME280;55636;51.108;13.622;2023-05-31T03:36:46;101169.09;;;10.81;52.88
68654;BME280;55636;51.108;13.622;2023-05-31T03:38:12;101163.34;;;10.83;52.74
68654;BME280;55636;51.108;13.622;2023-05-31T03:39:14;101164.53;;;10.87;52.87
68654;BME280;55636;51.108;13.622;2023-05-31T03:40:17;101160.69;;;10.88;52.89
68654;BME280;55636;51.108;13.622;2023-05-31T03:41:20;101160.19;;;10.91;53.06
68654;BME280;55636;51.108;13.622;2023-05-31T03:42:22;101161.63;;;10.94;53.00
68654;BME280;55636;51.108;13.622;2023-05-31T03:43:25;101159.22;;;10.97;53.12
68654;BME280;55636;51.108;13.622;2023-05-31T03:44:28;101157.91;;;11.00;53.18
68654;BME280;55636;51.108;13.622;2023-05-31T03:45:31;101152.47;;;11.05;53.16
68654;BME280;55636;51.108;13.622;2023-05-31T03:46:33;101161.94;;;11.09;52.92
68654;BME280;55636;51.108;13.622;2023-05-31T03:47:36;101160.63;;;11.12;53.11
68654;BME280;55636;51.108;13.622;2023-05-31T03:48:39;101159.88;;;11.16;52.86
68654;BME280;55636;51.108;13.622;2023-05-31T03:49:42;101163.84;;;11.21;52.93
68654;BME280;55636;51.108;13.622;2023-05-31T03:50:44;101162.28;;;11.25;53.12
68654;BME280;55636;51.108;13.622;2023-05-31T03:51:48;101166.78;;;11.31;52.61
68654;BME280;55636;51.108;13.622;2023-05-31T03:52:50;101159.72;;;11.35;52.78
68654;BME280;55636;51.108;13.622;2023-05-31T03:53:53;101159.81;;;11.40;52.59
68654;BME280;55636;51.108;13.622;2023-05-31T03:54:55;101168.00;;;11.47;52.48
68654;BME280;55636;51.108;13.622;2023-05-31T03:55:57;101164.47;;;11.51;52.37
68654;BME280;55636;51.108;13.622;2023-05-31T03:57:00;101157.13;;;11.57;52.04
68654;BME280;55636;51.108;13.622;2023-05-31T03:58:03;101158.88;;;11.63;52.23
68654;BME280;55636;51.108;13.622;2023-05-31T03:59:09;101162.34;;;11.71;51.85
68654;BME280;55636;51.108;13.622;2023-05-31T04:00:11;101165.78;;;11.78;51.93
68654;BME280;55636;51.108;13.622;2023-05-31T04:01:15;101162.03;;;11.84;51.35
68654;BME280;55636;51.108;13.622;2023-05-31T04:02:17;101160.19;;;11.90;51.37
68654;BME280;55636;51.108;13.622;2023-05-31T04:03:20;101170.00;;;11.97;50.72
68654;BME280;55636;51.108;13.622;2023-05-31T04:04:24;101170.44;;;12.06;50.38
68654;BME280;55636;51.108;13.622;2023-05-31T04:05:29;101164.97;;;12.11;50.30
68654;BME280;55636;51.108;13.622;2023-05-31T04:06:32;101163.97;;;12.17;49.83
68654;BME280;55636;51.108;13.622;2023-05-31T04:07:34;101166.84;;;12.23;49.85
68654;BME280;55636;51.108;13.622;2023-05-31T04:08:37;101157.00;;;12.32;49.67
68654;BME280;55636;51.108;13.622;2023-05-31T04:09:40;101164.31;;;12.38;49.33
68654;BME280;55636;51.108;13.622;2023-05-31T04:10:43;101165.22;;;12.44;49.32
68654;BME280;55636;51.108;13.622;2023-05-31T04:11:46;101168.66;;;12.51;49.11
68654;BME280;55636;51.108;13.622;2023-05-31T04:12:49;101168.50;;;12.58;48.83
68654;BME280;55636;51.108;13.622;2023-05-31T04:13:51;101170.28;;;12.64;48.57
68654;BME280;55636;51.108;13.622;2023-05-31T04:14:54;101164.56;;;12.71;48.49
68654;BME280;55636;51.108;13.622;2023-05-31T04:15:57;101166.28;;;12.77;48.09
68654;BME280;55636;51.108;13.622;2023-05-31T04:16:59;101165.84;;;12.85;48.34
68654;BME280;55636;51.108;13.622;2023-05-31T04:18:02;101165.94;;;12.90;47.86
68654;BME280;55636;51.108;13.622;2023-05-31T04:19:04;101168.25;;;12.98;47.92
68654;BME280;55636;51.108;13.622;2023-05-31T04:20:07;101167.78;;;13.07;47.89
68654;BME280;55636;51.108;13.622;2023-05-31T04:21:10;101166.50;;;13.14;47.69
68654;BME280;55636;51.108;13.622;2023-05-31T04:22:13;101174.13;;;13.24;47.48
68654;BME280;55636;51.108;13.622;2023-05-31T04:23:16;101168.94;;;13.33;47.19
68654;BME280;55636;51.108;13.622;2023-05-31T04:24:18;101178.50;;;13.42;47.15
68654;BME280;55636;51.108;13.622;2023-05-31T04:25:21;101175.25;;;13.50;46.70
68654;BME280;55636;51.108;13.622;2023-05-31T04:26:23;101172.00;;;13.59;46.73
68654;BME280;55636;51.108;13.622;2023-05-31T04:27:29;101175.97;;;13.68;46.21
68654;BME280;55636;51.108;13.622;2023-05-31T04:28:37;101176.66;;;13.75;46.06
68654;BME280;55636;51.108;13.622;2023-05-31T04:29:40;101169.53;;;13.85;45.71
68654;BME280;55636;51.108;13.622;2023-05-31T04:30:42;101172.66;;;13.93;45.60
68654;BME280;55636;51.108;13.622;2023-05-31T04:31:47;101181.34;;;14.02;45.45
68654;BME280;55636;51.108;13.622;2023-05-31T04:32:55;101184.78;;;14.14;45.37
68654;BME280;55636;51.108;13.622;2023-05-31T04:34:00;101175.97;;;14.23;44.99
68654;BME280;55636;51.108;13.622;2023-05-31T04:35:03;101177.16;;;14.32;44.74
68654;BME280;55636;51.108;13.622;2023-05-31T04:36:09;101177.22;;;14.42;44.83
68654;BME280;55636;51.108;13.622;2023-05-31T04:37:12;101180.34;;;14.51;44.60
68654;BME280;55636;51.108;13.622;2023-05-31T04:38:15;101180.44;;;14.61;44.11
68654;BME280;55636;51.108;13.622;2023-05-31T04:39:19;101178.81;;;14.71;43.91
68654;BME280;55636;51.108;13.622;2023-05-31T04:40:26;101180.84;;;14.80;44.01
68654;BME280;55636;51.108;13.622;2023-05-31T04:41:30;101175.59;;;14.89;43.57
68654;BME280;55636;51.108;13.622;2023-05-31T04:42:32;101177.63;;;14.99;43.71
68654;BME280;55636;51.108;13.622;2023-05-31T04:43:36;101177.66;;;15.09;43.38
68654;BME280;55636;51.108;13.622;2023-05-31T04:44:42;101183.28;;;15.20;43.15
68654;BME280;55636;51.108;13.622;2023-05-31T04:45:44;101174.97;;;15.30;43.29
68654;BME280;55636;51.108;13.622;2023-05-31T04:46:47;101174.97;;;15.40;43.18
68654;BME280;55636;51.108;13.622;2023-05-31T04:47:49;101180.59;;;15.51;43.02
68654;BME280;55636;51.108;13.622;2023-05-31T04:48:53;101175.03;;;15.61;42.67
68654;BME280;55636;51.108;13.622;2023-05-31T04:49:58;101171.19;;;15.72;42.50
68654;BME280;55636;51.108;13.622;2023-05-31T04:51:01;101177.91;;;15.81;42.40
68654;BME280;55636;51.108;13.622;2023-05-31T04:52:04;101172.06;;;15.93;42.02
68654;BME280;55636;51.108;13.622;2023-05-31T04:53:07;101176.53;;;16.05;41.96
68654;BME280;55636;51.108;13.622;2023-05-31T04:54:09;101173.75;;;16.15;41.72
68654;BME280;55636;51.108;13.622;2023-05-31T04:55:12;101171.78;;;16.26;41.58
68654;BME280;55636;51.108;13.622;2023-05-31T04:56:15;101175.41;;;16.37;41.17
68654;BME280;55636;51.108;13.622;2023-05-31T04:57:18;101174.56;;;16.46;41.06
68654;BME280;55636;51.108;13.622;2023-05-31T04:58:21;101172.88;;;16.56;40.78
68654;BME280;55636;51.108;13.622;2023-05-31T04:59:26;101170.94;;;16.67;40.25
68654;BME280;55636;51.108;13.622;2023-05-31T05:00:28;101170.91;;;16.77;40.66
68654;BME280;55636;51.108;13.622;2023-05-31T05:01:45;101173.38;;;16.89;40.01
68654;BME280;55636;51.108;13.622;2023-05-31T05:02:51;101175.03;;;17.00;40.14
68654;BME280;55636;51.108;13.622;2023-05-31T05:03:53;101171.38;;;17.10;40.00
68654;BME280;55636;51.108;13.622;2023-05-31T05:04:56;101177.75;;;17.21;39.48
68654;BME280;55636;51.108;13.622;2023-05-31T05:06:01;101169.31;;;17.31;39.67
68654;BME280;55636;51.108;13.622;2023-05-31T05:07:05;101177.66;;;17.41;39.57
68654;BME280;55636;51.108;13.622;2023-05-31T05:08:07;101174.84;;;17.52;39.63
68654;BME280;55636;51.108;13.622;2023-05-31T05:09:12;101174.50;;;17.64;39.22
68654;BME280;55636;51.108;13.622;2023-05-31T05:10:14;101176.38;;;17.73;39.09
68654;BME280;55636;51.108;13.622;2023-05-31T05:11:17;101170.72;;;17.84;38.85
68654;BME280;55636;51.108;13.622;2023-05-31T05:12:20;101174.56;;;17.93;39.01
68654;BME280;55636;51.108;13.622;2023-05-31T05:13:24;101172.53;;;18.04;38.64
68654;BME280;55636;51.108;13.622;2023-05-31T05:14:26;101178.31;;;18.12;38.08
68654;BME280;55636;51.108;13.622;2023-05-31T05:15:30;101178.53;;;18.21;38.07
68654;BME280;55636;51.108;13.622;2023-05-31T05:16:32;101177.91;;;18.29;37.99
68654;BME280;55636;51.108;13.622;2023-05-31T05:17:35;101166.94;;;18.38;37.76
68654;BME280;55636;51.108;13.622;2023-05-31T05:18:37;101173.31;;;18.44;37.32
68654;BME280;55636;51.108;13.622;2023-05-31T05:19:40;101178.59;;;18.51;37.23
68654;BME280;55636;51.108;13.622;2023-05-31T05:20:44;101176.81;;;18.60;37.27
68654;BME280;55636;51.108;13.622;2023-05-31T05:21:47;101175.34;;;18.68;37.14
68654;BME280;55636;51.108;13.622;2023-05-31T05:22:51;101171.06;;;18.75;37.17
68654;BME280;55636;51.108;13.622;2023-05-31T05:23:57;101176.81;;;18.84;36.95
68654;BME280;55636;51.108;13.622;2023-05-31T05:24:59;101171.72;;;18.91;37.00
68654;BME280;55636;51.108;13.622;2023-05-31T05:26:03;101173.03;;;18.99;36.85
68654;BME280;55636;51.108;13.622;2023-05-31T05:27:06;101172.34;;;19.07;36.55
68654;BME280;55636;51.108;13.622;2023-05-31T05:28:09;101172.84;;;19.15;36.77
68654;BME280;55636;51.108;13.622;2023-05-31T05:29:13;101176.69;;;19.24;36.53
68654;BME280;55636;51.108;13.622;2023-05-31T05:30:17;101166.78;;;19.32;36.51
68654;BME280;55636;51.108;13.622;2023-05-31T05:31:22;101176.47;;;19.39;35.75
68654;BME280;55636;51.108;13.622;2023-05-31T05:32:27;101174.97;;;19.47;36.16
68654;BME280;55636;51.108;13.622;2023-05-31T05:33:31;101171.78;;;19.54;35.83
68654;BME280;55636;51.108;13.622;2023-05-31T05:34:37;101175.88;;;19.62;35.70